Crew | Aerofun Virtual



 METAR AND TAF INFORMATION
METAR FOR EFJO
ADDS - METARS form results

(1530 UTC 24 May 2019)
Data provider http://aviationweather.gov/metar/data/
 
METAR text: EFJO 241520Z AUTO 03005KT 340V080 9999 BKN047 OVC070 06/02 Q1012
Conditions at: EFJO (JOENSUU , FI) observed 1520 UTC 24 May 2019
Temperature: 6.0°C (43°F)
Dewpoint: 2.0°C (36°F) [RH = 75%]
Pressure (altimeter): 29.88 inches Hg (1012.0 mb)
Winds: from the NNE (30 degrees) at 6 MPH (5 knots; 2.6 m/s)
Visibility: 6 or more miles (10+ km)
Ceiling: 4700 feet AGL
Clouds: broken clouds at 4700 feet AGL
overcast cloud deck at 7000 feet AGL
Weather: no significant weather observed at this time

METAR text: EFJO 241450Z 03004KT 360V060 9999 OVC047 06/02 Q1013
Conditions at: EFJO (JOENSUU , FI) observed 1450 UTC 24 May 2019
Temperature: 6.0°C (43°F)
Dewpoint: 2.0°C (36°F) [RH = 75%]
Pressure (altimeter): 29.91 inches Hg (1013.0 mb)
Winds: from the NNE (30 degrees) at 5 MPH (4 knots; 2.1 m/s)
Visibility: 6 or more miles (10+ km)
Ceiling: 4700 feet AGL
Clouds: overcast cloud deck at 4700 feet AGL
Weather: no significant weather observed at this time

Forecast for: EFJO (JOENSUU , FI)
Text: TAF EFJO 241431Z 2415/2423 11004KT 9999 -RA SCT025 OVC045
Forecast period: 1500 to 2300 UTC 24 May 2019
Forecast type: FROM: standard forecast or significant change
Winds: from the ESE (110 degrees) at 5 MPH (4 knots; 2.1 m/s)
Visibility: 6 or more miles 10+ km)
Ceiling: 4500 feet AGL
Clouds: scattered clouds at 2500 feet AGL
overcast cloud deck at 4500 feet AGL
Weather: -RA  (light rain)

 AIRPORT MAP

 RUNWAY INFORMATION
Runway 10 Runway length 8202 ft Runway width 171 ft
Runway elevation 398 ft Runway displaced threshold 0 ft Runway heading 110
Runway 28 Runway length 8202 ft Runway width 171 ft
Runway elevation 364 ft Runway displaced threshold 0 ft Runway heading 290
Runway 17 Runway length 3937 ft Runway width 98 ft
Runway elevation 391 ft Runway displaced threshold 0 ft Runway heading 181
Runway 35 Runway length 3937 ft Runway width 98 ft
Runway elevation 371 ft Runway displaced threshold 0 ft Runway heading 1

 AIRPORT FREQUENCIES
Type ATIS Name ATIS Frequency 115.7 MHZ
Type TWR Name TWR Frequency 120.9 MHZ

 AIRPORT NEAR NAVIGATION AIDS
Type VOR-DME Name Josie Frequency 115700 KHZ
Type NDB Name Joensuu Frequency 325 KHZ